Accueil
METAR-TAF:

METAR-TAF

Aéroports :

Annecy, France

Aéroport d'Annecy Haute-Savoie Mont-Blanc

latitude: 45-55-45N, longitude: 006-05-56E, altitude: 463 m

Observation

Le bulletin a été fait il y a 15 minutes, à 10:00 UTC
Vent 10 kt de nord, variant entre nord/nord-ouest et nord/nord-est
Température 0°C
Humidité 74%
Pression 1010 hPa
Visibilité: 7000 m
Ciel couvert à une hauteur de 2000 ft

METAR: LFLP 241000Z AUTO 36010KT 330V030 7000 OVC020 00/M04 Q1010

Heure: 11:15 (10:15 UTC)

Prévision

Le bulletin a été fait il y a 8 heures et 15 minutes, à 02:00 UTC
Prévision valable du 24 à 03 UTC au 25 à 03 UTC
Vent 10 kt de nord
Visibilité: 6000 m
Ciel couvert à une hauteur de 1800 ft

TAF: LFLP 240200Z 2403/2503 35010KT 6000 OVC018

Observations et prévisions météorologiques de plus de 4000 aéroports (messages METAR et TAF).

Les stations disponibles sont représentées par des disques jaunes et rouges sur la carte.

Passer la souris dessus pour voir le nom de la station.

Cliquer dessus pour voir les observations et prévisions météorologiques.

Pour changer de carte: cliquez sur les boutons verts avec une croix noire pour zoomer, sur le bouton vert avec un tiret pour effectuer un zoom arrière, ou sur les flèches vertes pour les cartes adjacentes.


METAR-TAF: